createdAt,value
2023-01-10T00:01:42.609Z,98261.36
2023-01-10T00:04:10.708Z,98265.00
2023-01-10T00:06:38.781Z,98267.41
2023-01-10T00:09:06.677Z,98267.31
2023-01-10T00:11:53.256Z,98273.33
2023-01-10T00:14:21.392Z,98277.54
2023-01-10T00:16:49.445Z,98282.07
2023-01-10T00:19:17.361Z,98278.67
2023-01-10T00:21:45.248Z,98279.04
2023-01-10T00:24:19.242Z,98278.21
2023-01-10T00:26:51.576Z,98280.16
2023-01-10T00:29:31.351Z,98279.73
2023-01-10T00:31:59.441Z,98281.39
2023-01-10T00:34:27.342Z,98279.95
2023-01-10T00:36:55.284Z,98280.79
2023-01-10T00:39:27.081Z,98280.20
2023-01-10T00:42:13.727Z,98284.89
2023-01-10T00:44:41.707Z,98287.98
2023-01-10T00:47:09.658Z,98293.66
2023-01-10T00:49:37.614Z,98296.77
2023-01-10T00:52:05.580Z,98299.88
2023-01-10T00:54:33.733Z,98300.54
2023-01-10T00:57:01.853Z,98303.29
2023-01-10T00:59:29.748Z,98311.22
2023-01-10T01:01:57.753Z,98311.02
2023-01-10T01:04:25.961Z,98311.69
2023-01-10T01:06:53.844Z,98316.91
2023-01-10T01:09:21.741Z,98318.11
2023-01-10T01:11:49.680Z,98325.16
2023-01-10T01:14:17.552Z,98326.86
2023-01-10T01:16:45.482Z,98327.11
2023-01-10T01:19:13.501Z,98329.02
2023-01-10T01:21:41.818Z,98334.13
2023-01-10T01:24:10.926Z,98335.52
2023-01-10T01:26:39.906Z,98340.73
2023-01-10T01:29:08.008Z,98342.86
2023-01-10T01:31:36.248Z,98344.54
2023-01-10T01:34:04.264Z,98344.48
2023-01-10T01:36:32.189Z,98349.61
2023-01-10T01:39:00.282Z,98352.70
2023-01-10T01:41:46.715Z,98356.41
2023-01-10T01:44:17.556Z,98362.80
2023-01-10T01:46:50.632Z,98369.67
2023-01-10T01:49:21.786Z,98366.52
2023-01-10T01:51:56.041Z,98365.61
2023-01-10T01:54:24.061Z,98370.63
2023-01-10T01:56:57.664Z,98373.33
2023-01-10T01:59:30.240Z,98371.45
2023-01-10T02:02:04.212Z,98373.68
2023-01-10T02:04:42.698Z,98378.21
2023-01-10T02:07:11.237Z,98378.89
2023-01-10T02:09:48.805Z,98377.52
2023-01-10T02:12:17.273Z,98382.17
2023-01-10T02:14:47.197Z,98385.38
2023-01-10T02:17:15.327Z,98389.29
2023-01-10T02:19:51.644Z,98392.54
2023-01-10T02:22:42.214Z,98389.90
2023-01-10T02:25:30.991Z,98390.54
2023-01-10T02:28:23.032Z,98392.30
2023-01-10T02:31:09.287Z,98395.80
2023-01-10T02:33:56.515Z,98394.95
2023-01-10T02:36:46.240Z,98408.80
2023-01-10T02:39:20.513Z,98412.17
2023-01-10T02:42:04.506Z,98417.46
2023-01-10T02:44:58.646Z,98419.39
2023-01-10T02:47:27.313Z,98421.91
2023-01-10T02:49:55.172Z,98426.48
2023-01-10T02:52:27.932Z,98433.85
2023-01-10T02:55:01.582Z,98433.99
2023-01-10T02:57:44.732Z,98439.81
2023-01-10T03:00:53.674Z,98441.02
2023-01-10T03:03:43.903Z,98450.52
2023-01-10T03:06:24.093Z,98450.67
2023-01-10T03:08:58.856Z,98455.36
2023-01-10T03:11:41.709Z,98459.41
2023-01-10T03:14:19.400Z,98460.46
2023-01-10T03:16:54.197Z,98466.41
2023-01-10T03:19:27.243Z,98471.16
2023-01-10T03:21:59.335Z,98477.97
2023-01-10T03:24:44.948Z,98483.98
2023-01-10T03:27:22.780Z,98487.53
2023-01-10T03:30:12.371Z,98498.84
2023-01-10T03:32:41.612Z,98501.55
2023-01-10T03:35:12.284Z,98507.48
2023-01-10T03:37:49.241Z,98513.01
2023-01-10T03:40:32.914Z,98514.42
2023-01-10T03:43:26.041Z,98520.09
2023-01-10T03:46:08.528Z,98519.88
2023-01-10T03:48:41.509Z,98518.71
2023-01-10T03:51:10.695Z,98523.60
2023-01-10T03:53:39.895Z,98533.56
2023-01-10T03:56:07.889Z,98540.61
2023-01-10T03:58:35.766Z,98539.83
2023-01-10T04:01:03.780Z,98546.80
2023-01-10T04:03:31.619Z,98548.48
2023-01-10T04:05:59.621Z,98555.77
2023-01-10T04:08:27.504Z,98556.20
2023-01-10T04:10:55.401Z,98558.54
2023-01-10T04:13:23.247Z,98564.80
2023-01-10T04:15:51.563Z,98567.44
2023-01-10T04:18:19.576Z,98571.08
2023-01-10T04:20:47.762Z,98573.40
2023-01-10T04:23:15.637Z,98577.86
2023-01-10T04:25:47.599Z,98588.23
2023-01-10T04:28:15.812Z,98592.46
2023-01-10T04:30:43.700Z,98596.39
2023-01-10T04:33:12.614Z,98598.52
2023-01-10T04:35:41.547Z,98604.55
2023-01-10T04:38:09.533Z,98606.79
2023-01-10T04:40:37.520Z,98607.38
2023-01-10T04:43:05.400Z,98614.89
2023-01-10T04:45:33.294Z,98612.28
2023-01-10T04:48:01.203Z,98617.55
2023-01-10T04:50:29.157Z,98620.42
2023-01-10T04:52:57.054Z,98620.91
2023-01-10T04:55:24.995Z,98626.86
2023-01-10T04:57:52.915Z,98634.91
2023-01-10T05:00:20.963Z,98635.53
2023-01-10T05:02:49.000Z,98640.35
2023-01-10T05:05:17.056Z,98645.15
2023-01-10T05:07:46.586Z,98650.41
2023-01-10T05:10:14.610Z,98654.29
2023-01-10T05:12:42.498Z,98659.87
2023-01-10T05:15:10.892Z,98661.31
2023-01-10T05:17:38.865Z,98669.17
2023-01-10T05:20:07.628Z,98673.41
2023-01-10T05:22:35.599Z,98684.60
2023-01-10T05:25:03.671Z,98685.64
2023-01-10T05:27:31.922Z,98691.73
2023-01-10T05:29:59.911Z,98698.30
2023-01-10T05:32:30.853Z,98699.98
2023-01-10T05:34:58.784Z,98705.39
2023-01-10T05:37:26.754Z,98708.77
2023-01-10T05:39:54.594Z,98708.63
2023-01-10T05:42:22.484Z,98710.21
2023-01-10T05:44:50.440Z,98712.29
2023-01-10T05:47:18.319Z,98715.59
2023-01-10T05:49:46.326Z,98721.11
2023-01-10T05:52:14.801Z,98720.69
2023-01-10T05:54:42.682Z,98724.73
2023-01-10T05:57:10.717Z,98729.88
2023-01-10T05:59:38.659Z,98733.05
2023-01-10T06:02:06.606Z,98735.69
2023-01-10T06:04:34.666Z,98740.67
2023-01-10T06:07:02.684Z,98744.51
2023-01-10T06:09:30.525Z,98745.73
2023-01-10T06:11:58.400Z,98753.65
2023-01-10T06:14:26.333Z,98761.13
2023-01-10T06:16:54.374Z,98767.31
2023-01-10T06:19:22.234Z,98766.39
2023-01-10T06:25:20.409Z,98781.21
2023-01-10T06:27:46.974Z,98793.48
2023-01-10T06:30:14.048Z,98797.98
2023-01-10T06:32:41.746Z,98807.34
2023-01-10T06:35:08.866Z,98812.84
2023-01-10T06:37:35.580Z,98812.39
2023-01-10T06:40:02.716Z,98819.89
2023-01-10T06:42:29.362Z,98830.90
2023-01-10T06:44:55.984Z,98835.04
2023-01-10T06:47:22.552Z,98844.33
2023-01-10T06:49:49.073Z,98843.55
2023-01-10T06:52:15.695Z,98844.58
2023-01-10T06:54:42.374Z,98849.42
2023-01-10T06:57:08.932Z,98852.08
2023-01-10T06:59:35.503Z,98859.02
2023-01-10T07:02:02.194Z,98860.91
2023-01-10T07:04:28.949Z,98865.52
2023-01-10T07:06:55.624Z,98874.71
2023-01-10T07:09:22.201Z,98878.70
2023-01-10T07:11:48.759Z,98889.15
2023-01-10T07:14:15.279Z,98891.63
2023-01-10T07:16:41.844Z,98898.33
2023-01-10T07:19:08.405Z,98899.39
2023-01-10T07:21:34.988Z,98902.96
2023-01-10T07:24:02.745Z,98912.52
2023-01-10T07:26:29.633Z,98919.27
2023-01-10T07:28:56.531Z,98917.38
2023-01-10T07:31:23.891Z,98925.33
2023-01-10T07:33:51.915Z,98930.60
2023-01-10T07:36:19.118Z,98934.77
2023-01-10T07:38:45.711Z,98940.61
2023-01-10T07:41:12.249Z,98942.37
2023-01-10T07:43:38.793Z,98940.83
2023-01-10T07:46:11.489Z,98936.00
2023-01-10T07:48:38.581Z,98942.82
2023-01-10T07:51:05.310Z,98953.42
2023-01-10T07:53:32.530Z,98960.45
2023-01-10T07:56:01.107Z,98959.67
2023-01-10T07:58:28.638Z,98956.33
2023-01-10T08:00:59.703Z,98956.14
2023-01-10T08:03:26.640Z,98961.39
2023-01-10T08:06:01.575Z,98968.41
2023-01-10T08:08:28.344Z,98972.02
2023-01-10T08:10:55.611Z,98974.02
2023-01-10T08:13:22.670Z,98970.00
2023-01-10T08:15:52.082Z,98977.36
2023-01-10T08:18:20.648Z,98980.90
2023-01-10T08:20:51.873Z,98984.37
2023-01-10T08:23:19.566Z,98992.61
2023-01-10T08:25:46.318Z,99000.84
2023-01-10T08:28:13.928Z,99003.30
2023-01-10T08:30:40.692Z,99012.75
2023-01-10T08:33:08.873Z,99013.25
2023-01-10T08:35:39.999Z,99015.45
2023-01-10T08:38:06.695Z,99023.06
2023-01-10T08:40:33.521Z,99027.12
2023-01-10T08:43:02.358Z,99027.56
2023-01-10T08:45:29.791Z,99023.98
2023-01-10T08:47:56.449Z,99032.41
2023-01-10T08:50:23.540Z,99035.77
2023-01-10T08:52:53.230Z,99041.73
2023-01-10T08:55:19.866Z,99044.14
2023-01-10T08:57:46.456Z,99038.85
2023-01-10T09:00:13.757Z,99042.04
2023-01-10T09:02:40.685Z,99042.21
2023-01-10T09:05:18.577Z,99043.54
2023-01-10T09:07:57.405Z,99042.83
2023-01-10T09:10:23.991Z,99048.37
2023-01-10T09:12:56.786Z,99054.15
2023-01-10T09:15:26.112Z,99054.21
2023-01-10T09:17:54.811Z,99062.56
2023-01-10T09:20:24.222Z,99063.71
2023-01-10T09:22:50.859Z,99070.25
2023-01-10T09:25:17.671Z,99072.98
2023-01-10T09:27:44.369Z,99072.67
2023-01-10T09:30:11.400Z,99077.62
2023-01-10T09:32:37.994Z,99079.88
2023-01-10T09:35:04.811Z,99081.09
2023-01-10T09:37:33.029Z,99081.40
2023-01-10T09:39:59.559Z,99081.66
2023-01-10T09:43:05.119Z,99081.47
2023-01-10T09:45:38.162Z,99090.06
2023-01-10T09:48:08.704Z,99097.21
2023-01-10T09:51:16.686Z,99105.95
2023-01-10T09:53:45.481Z,99107.19
2023-01-10T09:56:15.061Z,99105.67
2023-01-10T09:58:43.575Z,99106.83
2023-01-10T10:01:22.660Z,99112.98
2023-01-10T10:04:16.034Z,99113.77
2023-01-10T10:06:42.927Z,99118.21
2023-01-10T10:09:21.264Z,99120.20
2023-01-10T10:12:00.222Z,99122.48
2023-01-10T10:14:41.782Z,99128.83
2023-01-10T10:17:11.281Z,99132.80
2023-01-10T10:20:09.371Z,99136.64
2023-01-10T10:22:52.176Z,99142.98
2023-01-10T10:25:28.517Z,99146.02
2023-01-10T10:28:30.953Z,99148.45
2023-01-10T10:31:09.563Z,99151.14
2023-01-10T10:33:36.146Z,99154.83
2023-01-10T10:36:13.405Z,99163.52
2023-01-10T10:38:44.418Z,99160.10
2023-01-10T10:41:32.147Z,99159.81
2023-01-10T10:44:04.182Z,99164.05
2023-01-10T10:46:31.691Z,99161.96
2023-01-10T10:49:21.295Z,99167.11
2023-01-10T10:51:52.403Z,99171.04
2023-01-10T10:54:19.271Z,99169.54
2023-01-10T10:56:46.548Z,99167.03
2023-01-10T10:59:21.859Z,99163.73
2023-01-10T11:01:51.209Z,99169.31
2023-01-10T11:04:22.413Z,99174.64
2023-01-10T11:06:49.687Z,99175.41
2023-01-10T11:09:23.457Z,99177.02
2023-01-10T11:11:51.657Z,99176.75
2023-01-10T11:14:46.147Z,99178.40
2023-01-10T11:17:22.153Z,99178.80
2023-01-10T11:19:57.317Z,99183.48
2023-01-10T11:22:26.949Z,99180.27
2023-01-10T11:25:01.818Z,99180.40
2023-01-10T11:27:35.743Z,99182.84
2023-01-10T11:30:08.067Z,99180.23
2023-01-10T11:32:38.370Z,99182.45
2023-01-10T11:35:16.996Z,99183.39
2023-01-10T11:37:43.511Z,99182.23
2023-01-10T11:40:23.330Z,99188.62
2023-01-10T11:42:53.977Z,99193.23
2023-01-10T11:45:23.457Z,99198.10
2023-01-10T11:48:02.288Z,99200.59
2023-01-10T11:50:32.723Z,99201.29
2023-01-10T11:52:59.560Z,99209.05
2023-01-10T11:55:29.611Z,99212.95
2023-01-10T11:58:13.066Z,99214.34
2023-01-10T12:00:47.874Z,99211.20
2023-01-10T12:03:28.657Z,99203.66
2023-01-10T12:06:03.623Z,99207.36
2023-01-10T12:08:32.859Z,99212.61
2023-01-10T12:11:07.107Z,99214.73
2023-01-10T12:13:46.446Z,99220.57
2023-01-10T12:16:17.357Z,99220.76
2023-01-10T12:18:44.840Z,99217.88
2023-01-10T12:21:14.976Z,99217.60
2023-01-10T12:23:44.332Z,99216.12
2023-01-10T12:26:12.728Z,99221.40
2023-01-10T12:28:51.657Z,99225.34
2023-01-10T12:31:21.175Z,99225.75
2023-01-10T12:34:04.297Z,99220.67
2023-01-10T12:36:44.135Z,99224.14
2023-01-10T12:39:46.304Z,99224.67
2023-01-10T12:42:43.514Z,99230.48
2023-01-10T12:45:19.006Z,99235.02
2023-01-10T12:48:03.808Z,99233.10
2023-01-10T12:50:53.289Z,99233.44
2023-01-10T12:53:53.387Z,99239.15
2023-01-10T12:56:20.608Z,99247.80
2023-01-10T12:58:56.116Z,99247.36
2023-01-10T13:01:29.511Z,99252.76
2023-01-10T13:04:01.498Z,99256.28
2023-01-10T13:06:34.583Z,99263.43
2023-01-10T13:09:06.908Z,99271.90
2023-01-10T13:11:41.943Z,99273.59
2023-01-10T13:14:13.289Z,99281.77
2023-01-10T13:16:47.967Z,99295.44
2023-01-10T13:19:19.086Z,99300.83
2023-01-10T13:21:46.564Z,99302.60
2023-01-10T13:24:21.793Z,99308.44
2023-01-10T13:26:48.424Z,99316.08
2023-01-10T13:29:19.971Z,99315.85
2023-01-10T13:31:49.729Z,99318.42
2023-01-10T13:34:18.485Z,99319.48
2023-01-10T13:36:56.473Z,99326.96
2023-01-10T13:39:49.987Z,99331.95
2023-01-10T13:42:48.455Z,99339.52
2023-01-10T13:45:18.864Z,99344.49
2023-01-10T13:47:46.517Z,99341.69
2023-01-10T13:50:22.406Z,99337.79
2023-01-10T13:53:14.519Z,99338.84
2023-01-10T13:55:52.713Z,99340.46
2023-01-10T13:58:58.696Z,99337.77
2023-01-10T14:01:50.916Z,99340.70
2023-01-10T14:04:21.917Z,99349.20
2023-01-10T14:06:58.223Z,99354.77
2023-01-10T14:09:24.769Z,99358.66
2023-01-10T14:11:55.045Z,99358.27
2023-01-10T14:14:40.799Z,99356.48
2023-01-10T14:17:18.649Z,99351.02
2023-01-10T14:19:58.016Z,99352.94
2023-01-10T14:22:33.066Z,99356.78
2023-01-10T14:25:01.910Z,99359.71
2023-01-10T14:27:44.661Z,99361.55
2023-01-10T14:30:32.505Z,99365.30
2023-01-10T14:33:12.285Z,99369.95
2023-01-10T14:35:44.635Z,99373.47
2023-01-10T14:38:33.984Z,99379.38
2023-01-10T14:41:10.965Z,99382.52
2023-01-10T14:44:16.282Z,99384.20
2023-01-10T14:46:51.753Z,99390.67
2023-01-10T14:49:27.976Z,99388.91
2023-01-10T14:52:10.573Z,99391.92
2023-01-10T14:54:37.184Z,99389.09
2023-01-10T14:57:03.653Z,99390.02
2023-01-10T14:59:32.505Z,99387.48
2023-01-10T15:02:12.880Z,99386.36
2023-01-10T15:04:51.707Z,99384.91
2023-01-10T15:07:22.015Z,99387.00
2023-01-10T15:09:55.623Z,99391.63
2023-01-10T15:12:24.003Z,99398.66
2023-01-10T15:15:05.120Z,99404.98
2023-01-10T15:17:33.821Z,99405.16
2023-01-10T15:20:00.721Z,99401.53
2023-01-10T15:22:27.219Z,99407.52
2023-01-10T15:24:59.088Z,99411.98
2023-01-10T15:27:26.282Z,99410.16
2023-01-10T15:29:53.078Z,99414.52
2023-01-10T15:32:23.621Z,99414.29
2023-01-10T15:34:53.894Z,99418.06
2023-01-10T15:37:33.390Z,99425.04
2023-01-10T15:40:01.655Z,99428.93
2023-01-10T15:42:28.358Z,99430.86
2023-01-10T15:44:55.688Z,99444.58
2023-01-10T15:47:41.667Z,99449.52
2023-01-10T15:50:26.397Z,99457.30
2023-01-10T15:53:04.877Z,99465.19
2023-01-10T15:55:48.259Z,99464.70
2023-01-10T15:58:25.382Z,99460.44
2023-01-10T16:00:53.647Z,99453.56
2023-01-10T16:03:43.302Z,99453.65
2023-01-10T16:06:20.886Z,99456.50
2023-01-10T16:08:50.360Z,99459.73
2023-01-10T16:11:46.034Z,99465.23
2023-01-10T16:14:12.723Z,99473.35
2023-01-10T16:16:39.363Z,99476.88
2023-01-10T16:19:06.028Z,99472.72
2023-01-10T16:21:39.413Z,99472.71
2023-01-10T16:24:06.662Z,99473.78
2023-01-10T16:26:33.825Z,99473.98
2023-01-10T16:29:00.311Z,99471.55
2023-01-10T16:31:26.908Z,99475.00
2023-01-10T16:33:53.447Z,99476.19
2023-01-10T16:36:20.431Z,99478.08
2023-01-10T16:38:47.223Z,99482.23
2023-01-10T16:41:33.371Z,99486.88
2023-01-10T16:44:00.442Z,99490.79
2023-01-10T16:46:27.810Z,99498.40
2023-01-10T16:48:54.399Z,99499.64
2023-01-10T16:51:24.218Z,99497.55
2023-01-10T16:53:50.828Z,99500.77
2023-01-10T16:56:22.951Z,99502.66
2023-01-10T16:58:51.128Z,99502.80
2023-01-10T17:01:24.671Z,99510.10
2023-01-10T17:03:51.492Z,99516.20
2023-01-10T17:06:18.009Z,99515.56
2023-01-10T17:08:44.665Z,99514.16
2023-01-10T17:11:22.142Z,99516.84
2023-01-10T17:13:49.075Z,99520.04
2023-01-10T17:16:17.831Z,99524.14
2023-01-10T17:18:47.068Z,99525.00
2023-01-10T17:21:16.179Z,99527.38
2023-01-10T17:23:43.876Z,99527.98
2023-01-10T17:26:15.021Z,99528.21
2023-01-10T17:28:44.133Z,99531.00
2023-01-10T17:31:11.020Z,99530.45
2023-01-10T17:33:37.579Z,99530.05
2023-01-10T17:36:04.362Z,99530.56
2023-01-10T17:38:30.890Z,99533.91
2023-01-10T17:41:02.181Z,99530.23
2023-01-10T17:43:29.981Z,99528.77
2023-01-10T17:45:58.157Z,99529.80
2023-01-10T17:48:25.002Z,99530.90
2023-01-10T17:50:56.942Z,99532.88
2023-01-10T17:53:24.421Z,99536.92
2023-01-10T17:55:52.089Z,99540.96
2023-01-10T17:58:19.437Z,99541.30
2023-01-10T18:00:46.458Z,99543.22
2023-01-10T18:03:13.051Z,99543.59
2023-01-10T18:05:51.803Z,99542.10
2023-01-10T18:08:19.036Z,99539.05
2023-01-10T18:10:46.194Z,99543.77
2023-01-10T18:13:15.240Z,99545.66
2023-01-10T18:15:47.384Z,99547.73
2023-01-10T18:18:14.317Z,99542.63
2023-01-10T18:20:43.977Z,99543.14
2023-01-10T18:23:20.710Z,99541.03
2023-01-10T18:26:04.634Z,99541.69
2023-01-10T18:28:41.063Z,99538.88
2023-01-10T18:31:12.200Z,99541.86
2023-01-10T18:33:40.166Z,99544.70
2023-01-10T18:36:13.478Z,99546.30
2023-01-10T18:38:40.142Z,99548.02
2023-01-10T18:41:06.730Z,99549.57
2023-01-10T18:43:33.339Z,99554.12
2023-01-10T18:46:03.534Z,99552.06
2023-01-10T18:48:30.209Z,99553.79
2023-01-10T18:51:01.271Z,99555.72
2023-01-10T18:53:28.403Z,99557.28
2023-01-10T18:55:59.357Z,99557.27
2023-01-10T18:58:29.749Z,99555.69
2023-01-10T19:00:56.507Z,99557.92
2023-01-10T19:03:23.393Z,99559.45
2023-01-10T19:05:49.987Z,99557.48
2023-01-10T19:08:16.779Z,99559.02
2023-01-10T19:11:03.645Z,99558.48
2023-01-10T19:13:31.050Z,99555.40
2023-01-10T19:16:18.990Z,99554.89
2023-01-10T19:18:52.351Z,99557.89
2023-01-10T19:21:19.915Z,99554.05
2023-01-10T19:23:49.233Z,99551.18
2023-01-10T19:26:15.811Z,99554.20
2023-01-10T19:28:43.708Z,99559.71
2023-01-10T19:31:18.541Z,99562.13
2023-01-10T19:33:46.951Z,99569.20
2023-01-10T19:36:14.884Z,99572.11
2023-01-10T19:38:41.436Z,99574.01
2023-01-10T19:41:08.486Z,99575.52
2023-01-10T19:43:35.252Z,99577.02
2023-01-10T19:46:10.522Z,99579.21
2023-01-10T19:48:37.503Z,99577.61
2023-01-10T19:51:05.837Z,99575.51
2023-01-10T19:53:34.462Z,99571.67
2023-01-10T19:56:03.031Z,99572.32
2023-01-10T19:58:31.209Z,99573.52
2023-01-10T20:01:05.066Z,99577.92
2023-01-10T20:03:32.626Z,99576.48
2023-01-10T20:06:05.662Z,99572.77
2023-01-10T20:08:32.155Z,99568.74
2023-01-10T20:11:05.761Z,99567.36
2023-01-10T20:13:37.428Z,99573.64
2023-01-10T20:16:05.089Z,99574.64
2023-01-10T20:18:31.836Z,99575.48
2023-01-10T20:20:58.648Z,99578.05
2023-01-10T20:23:25.163Z,99576.73
2023-01-10T20:25:57.387Z,99574.07
2023-01-10T20:28:25.475Z,99573.17
2023-01-10T20:30:52.856Z,99567.95
2023-01-10T20:33:21.212Z,99569.64
2023-01-10T20:35:58.931Z,99570.33
2023-01-10T20:38:27.752Z,99570.16
2023-01-10T20:41:05.808Z,99567.87
2023-01-10T20:43:33.018Z,99567.33
2023-01-10T20:46:10.053Z,99570.45
2023-01-10T20:48:37.437Z,99569.71
2023-01-10T20:51:04.567Z,99571.41
2023-01-10T20:53:31.397Z,99569.42
2023-01-10T20:56:05.510Z,99565.92
2023-01-10T20:58:34.191Z,99567.46
2023-01-10T21:01:01.198Z,99568.34
2023-01-10T21:03:28.248Z,99568.16
2023-01-10T21:05:56.812Z,99565.85
2023-01-10T21:08:24.091Z,99562.35
2023-01-10T21:10:51.533Z,99561.10
2023-01-10T21:13:18.189Z,99558.82
2023-01-10T21:15:46.000Z,99559.55
2023-01-10T21:18:15.063Z,99557.82
2023-01-10T21:20:42.971Z,99556.63
2023-01-10T21:23:10.166Z,99555.77
2023-01-10T21:25:36.989Z,99556.68
2023-01-10T21:28:08.701Z,99552.54
2023-01-10T21:30:36.574Z,99549.94
2023-01-10T21:33:04.160Z,99547.55
2023-01-10T21:35:31.232Z,99549.02
2023-01-10T21:37:58.044Z,99549.41
2023-01-10T21:40:25.234Z,99549.98
2023-01-10T21:42:52.237Z,99551.77
2023-01-10T21:45:20.489Z,99550.59
2023-01-10T21:47:51.252Z,99549.41
2023-01-10T21:50:20.670Z,99551.56
2023-01-10T21:52:49.044Z,99555.45
2023-01-10T21:55:16.086Z,99551.14
2023-01-10T21:57:43.732Z,99549.17
2023-01-10T22:00:11.005Z,99554.86
2023-01-10T22:02:41.596Z,99552.66
2023-01-10T22:05:09.597Z,99552.38
2023-01-10T22:07:37.044Z,99552.66
2023-01-10T22:10:04.827Z,99555.91
2023-01-10T22:12:31.500Z,99550.38
2023-01-10T22:14:58.043Z,99543.97
2023-01-10T22:17:24.944Z,99540.36
2023-01-10T22:19:51.528Z,99537.64
2023-01-10T22:22:18.334Z,99536.92
2023-01-10T22:24:47.322Z,99538.09
2023-01-10T22:27:15.232Z,99539.23
2023-01-10T22:29:42.373Z,99537.91
2023-01-10T22:32:09.344Z,99529.42
2023-01-10T22:34:36.085Z,99530.36
2023-01-10T22:37:03.113Z,99530.60
2023-01-10T22:39:29.641Z,99529.98
2023-01-10T22:41:56.263Z,99528.11
2023-01-10T22:44:25.840Z,99529.77
2023-01-10T22:46:54.117Z,99531.40
2023-01-10T22:49:21.162Z,99528.52
2023-01-10T22:51:48.113Z,99527.40
2023-01-10T22:54:15.244Z,99524.55
2023-01-10T22:56:42.613Z,99520.99
2023-01-10T23:01:54.086Z,99520.13
2023-01-10T23:04:21.463Z,99519.52
2023-01-10T23:06:49.481Z,99518.71
2023-01-10T23:09:16.077Z,99519.54
2023-01-10T23:11:42.630Z,99524.90
2023-01-10T23:14:09.197Z,99527.27
2023-01-10T23:16:35.808Z,99525.48
2023-01-10T23:19:02.712Z,99524.88
2023-01-10T23:21:29.319Z,99520.93
2023-01-10T23:23:56.244Z,99519.43
2023-01-10T23:26:22.875Z,99518.15
2023-01-10T23:28:50.831Z,99517.02
2023-01-10T23:31:20.404Z,99512.21
2023-01-10T23:33:48.062Z,99512.75
2023-01-10T23:36:16.184Z,99510.30
2023-01-10T23:38:43.118Z,99505.55
2023-01-10T23:41:09.806Z,99508.83
2023-01-10T23:43:37.135Z,99506.73
2023-01-10T23:46:04.787Z,99506.39
2023-01-10T23:48:31.525Z,99500.30
2023-01-10T23:50:58.180Z,99496.13
2023-01-10T23:53:24.996Z,99497.40
2023-01-10T23:55:52.547Z,99499.20
2023-01-10T23:58:19.387Z,99498.19
